Ride Results

Gordon Williams Memorial Ride (16-11-2013)
Ride distance: 80.0 km

Outcomes - Gordon Williams Memorial Ride (16-11-2013)
Division No. of Entries Retired / DNE Completed Withdrawn Ineligible V/O Percentage Completed
HW 8 - 4 - 1 3 50.00%
MW 13 - 11 - - 2 84.62%
LW 11 - 9 - - 2 81.82%
JN 9 - 9 - - - 100.00%
Totals 41 - 33 - 1 7 80.49%
Results - Gordon Williams Memorial Ride (16-11-2013)
No. Rider Horse Place Time Leg Speeds Total
Km/Hr
H/R bpm
Heavyweight
38 Tony Purton Jeshar Park Shahriann 1 (BC) 4:41:00 18.5, 15.1 17.08 35, 47, 47 (Avg:47)
M Noel Lockhart Ralvon Splendour 2 6:03:00 13.3, 13.0 13.22 33, 36, 50 (Avg:43)
93 Jeremy Ford Valley Springs Saarina 3 6:48:00 12.9, 10.2 11.76 40, 49, 60 (Avg:54)
94 Natalie Humphries Duo Park Almighty 4 6:52:00 13.5, 9.4 11.65 48, 51, 58 (Avg:54)
156 Jared Pickering Glanheathyn Curio Lame L1 0:00:00 18.7 - 33, 43 (Avg:43)
247 David Pilgrim Brackenlea Samson Heart Rate L1 (Rep) 0:00:00 11.9 - 41, 60, 60 (Avg:60)
171 Craig Wall Undurra Shahkhan Under Novice Time L1 0:00:00 13.5 - 36
194 Robby Walsh Free Spirit Czar Heart Rate L1 0:00:00 17.2 - 35, 56 (Avg:56)
Middleweight
136 Kaye Mitchell Beer Street Bluewitch 1 (BC) 4:58:00 17.0, 14.7 16.11 32, 47, 44 (Avg:45)
99 Heather Johnson Black Heart Dashar 2 5:15:00 17.1, 12.8 15.24 34, 54, 51 (Avg:52)
79 Shannon Hill Lockleigh Park Silver Comet 3 6:03:00 13.3, 13.0 13.22 40, 44, 44, 42 (Avg:43)
15 Sonia Brown-Cordell Yondover Ridge Unique 4 6:08:00 13.1, 12.8 13.04 38, 44, 44, 49 (Avg:45)
57 Tania Jago Undurra Geisha 5 6:32:00 13.7, 10.3 12.24 40, 45, 57 (Avg:51)
185 Mikaela Jago Rivergum Ripper 5 6:32:00 13.7, 10.3 12.24 38, 45, 56 (Avg:50)
261 Danielle Taylor Highland View Red 7 6:50:33 11.9, 11.2 11.69 33, 39, 40 (Avg:39)
241 Lynette Walker Liandra 7 6:50:33 11.9, 11.2 11.69 38, 51, 48 (Avg:49)
21 Kylie Williams Hill Stone Nazeem 9 6:52:00 12.8, 10.1 11.65 36, 47, 56 (Avg:51)
49 Tammy Lamprey Malricia Ned 10 7:19:00 11.4, 10.2 10.93 42, 45, 53 (Avg:49)
92 Blaine Astell Tonki Dee Boo Basil 11 7:38:18 10.3, 10.6 10.47 50, 55, 51 (Avg:53)
17 David Evelyn Colt 45 - The Gun Heart Rate L1 0:00:00 12.9 - 39, 64 (Avg:64)
166 Craig Wilson Stellar Express Heart Rate L1 0:00:00 12.9 - 47, 68 (Avg:68)
Lightweight
187 Kelli Parker Fly 1 (BC) 5:15:00 17.1, 12.8 15.24 39, 52, 56 (Avg:54)
182 Fran Jordan Tierview Saadat 2 6:02:00 13.6, 12.6 13.26 40, 50, 52 (Avg:51)
115 Jenny Keygan Woodsong Kasanova 2 6:02:00 13.6, 12.6 13.26 35, 49, 51 (Avg:50)
179 Debbie Grull DVS Bradman 4 7:29:00 11.0, 10.1 10.69 36, 42, 48 (Avg:45)
46 Kiyoshi Matsui Highland View Chip 4 7:29:00 11.0, 10.1 10.69 35, 43, 50 (Avg:46)
271 Jessie Herman Highland View Crush 6 7:29:01 11.0, 10.1 10.69 46, 50, 49 (Avg:49)
275 Evelyn Brereton Kushmahs Final Gem 7 7:29:03 11.4, 9.5 10.69 41, 52, 58 (Avg:55)
90 Angela Hawks Ra-Anji Fareedah 8 7:30:16 10.3, 11.1 10.66 31, 48 (Avg:48)
54 Brooke McKenna Tonki Dee Boo Matilda 9 7:38:20 10.3, 10.6 10.47 64, 45 (Avg:45)
37 Jen Clingly Imaj Zamir Heart Rate L2 0:00:00 12.9, 10.2 - 33, 42, 71 (Avg:56)
112 Nash Hodgman Baranne Silver Shah Heart Rate L2 0:00:00 13.1, 12.8 - 40, 48, 66 (Avg:57)
Junior
190 Alice Mitchell Beer Street Takone 1 (BC) 4:58:00 17.0, 14.7 16.11 30, 47, 48 (Avg:47)
186 Amelia Napier Dee Zyne Hot Chocolate 2 6:01:00 14.0, 12.2 13.30 35, 44, 44 (Avg:44)
154 Sarah Parker King Park Aberdeen Pelion 2 6:01:00 14.0, 12.2 13.30 30, 44, 45 (Avg:44)
113 Kirstie Lockhart Suroco 4 6:03:00 13.3, 13.0 13.22 36, 45, 43 (Avg:44)
209 Grace Huxtable Highland View Jess 5 6:50:00 11.9, 11.2 11.71 35, 42, 48 (Avg:45)
74 Felicity Perry Mianaibara Angel of the Morning 6 6:50:15 11.9, 11.2 11.70 38, 40, 46 (Avg:43)
267 Matilda Ford Diamond Tail Desert Opal 7 7:18:00 12.9, 8.7 10.96 31, 45, 51 (Avg:48)
283 Asha Lamprey Woodsong Kade 8 7:19:01 11.4, 10.2 10.93 34, 43, 48 (Avg:45)
284 Abbey Ayers Nabowla Nook Nite 9 7:19:02 11.4, 10.2 10.93 32, 38, 44 (Avg:41)